createdAt,value
2018-04-22T00:00:06.104Z,25.40
2018-04-22T00:02:32.339Z,27.90
2018-04-22T00:04:58.460Z,25.40
2018-04-22T00:07:24.559Z,28.00
2018-04-22T00:09:50.660Z,28.00
2018-04-22T00:12:16.783Z,27.90
2018-04-22T00:14:43.311Z,27.80
2018-04-22T00:17:09.441Z,27.50
2018-04-22T00:19:35.544Z,27.60
2018-04-22T00:22:01.626Z,27.50
2018-04-22T00:24:27.728Z,27.60
2018-04-22T00:26:53.828Z,27.60
2018-04-22T00:29:19.902Z,27.50
2018-04-22T00:31:46.743Z,27.20
2018-04-22T00:34:13.599Z,27.30
2018-04-22T00:36:39.669Z,27.30
2018-04-22T00:39:05.826Z,27.10
2018-04-22T00:41:31.901Z,27.30
2018-04-22T00:43:57.976Z,27.30
2018-04-22T00:46:24.051Z,27.20
2018-04-22T00:48:50.122Z,27.20
2018-04-22T00:51:16.959Z,27.20
2018-04-22T00:54:01.528Z,27.10
2018-04-22T00:56:28.376Z,27.20
2018-04-22T00:58:54.439Z,27.20
2018-04-22T01:01:20.535Z,27.10
2018-04-22T01:03:47.040Z,27.30
2018-04-22T01:06:13.163Z,27.20
2018-04-22T01:08:40.016Z,26.80
2018-04-22T01:11:06.122Z,26.80
2018-04-22T01:13:32.279Z,26.90
2018-04-22T01:15:58.387Z,27.00
2018-04-22T01:18:24.484Z,27.10
2018-04-22T01:20:51.099Z,27.00
2018-04-22T01:23:17.249Z,27.10
2018-04-22T01:25:44.335Z,26.70
2018-04-22T01:28:10.430Z,26.80
2018-04-22T01:30:36.528Z,26.90
2018-04-22T01:33:02.612Z,26.90
2018-04-22T01:35:29.431Z,26.80
2018-04-22T01:37:55.523Z,26.80
2018-04-22T01:40:21.608Z,26.80
2018-04-22T01:42:47.698Z,26.90
2018-04-22T01:45:13.786Z,26.80
2018-04-22T01:47:39.867Z,26.80
2018-04-22T01:50:06.007Z,26.70
2018-04-22T01:52:32.143Z,26.90
2018-04-22T01:54:58.961Z,26.70
2018-04-22T01:57:25.031Z,26.80
2018-04-22T01:59:51.172Z,26.60
2018-04-22T02:02:17.280Z,26.60
2018-04-22T02:04:43.346Z,26.50
2018-04-22T02:07:10.171Z,26.40
2018-04-22T02:09:36.269Z,24.20
2018-04-22T02:12:02.401Z,26.50
2018-04-22T02:14:28.430Z,24.10
2018-04-22T02:16:54.504Z,24.70
2018-04-22T02:19:20.597Z,26.40
2018-04-22T02:21:46.721Z,26.50
2018-04-22T02:24:12.903Z,26.50
2018-04-22T02:26:39.586Z,26.40
2018-04-22T02:29:05.786Z,26.40
2018-04-22T02:31:32.722Z,26.30
2018-04-22T02:33:58.819Z,26.30
2018-04-22T02:36:24.893Z,26.40
2018-04-22T02:38:50.982Z,26.30
2018-04-22T02:41:17.045Z,26.10
2018-04-22T02:43:43.176Z,26.20
2018-04-22T02:46:09.270Z,26.20
2018-04-22T02:48:35.348Z,26.20
2018-04-22T02:51:01.453Z,26.30
2018-04-22T02:53:27.519Z,26.10
2018-04-22T02:55:54.343Z,26.10
2018-04-22T02:58:20.421Z,26.20
2018-04-22T03:00:46.488Z,26.20
2018-04-22T03:03:12.683Z,25.80
2018-04-22T03:05:38.791Z,26.10
2018-04-22T03:08:05.727Z,26.30
2018-04-22T03:10:31.815Z,26.30
2018-04-22T03:12:57.886Z,26.40
2018-04-22T03:15:23.991Z,26.30
2018-04-22T03:17:50.076Z,26.30
2018-04-22T03:20:16.922Z,26.40
2018-04-22T03:22:42.990Z,26.30
2018-04-22T03:25:09.080Z,26.40
2018-04-22T03:27:35.165Z,26.30
2018-04-22T03:30:01.231Z,26.30
2018-04-22T03:32:27.309Z,26.30
2018-04-22T03:34:53.382Z,26.30
2018-04-22T03:37:19.512Z,26.20
2018-04-22T03:39:45.715Z,26.10
2018-04-22T03:42:11.780Z,26.30
2018-04-22T03:44:37.858Z,26.30
2018-04-22T03:47:05.147Z,26.10
2018-04-22T03:49:31.252Z,26.00
2018-04-22T03:51:57.339Z,25.90
2018-04-22T03:54:23.437Z,26.10
2018-04-22T03:56:49.530Z,26.00
2018-04-22T03:59:15.627Z,26.10
2018-04-22T04:01:41.719Z,26.00
2018-04-22T04:04:07.807Z,26.00
2018-04-22T04:06:33.878Z,26.00
2018-04-22T04:08:59.944Z,25.80
2018-04-22T04:11:26.105Z,25.90
2018-04-22T04:13:52.294Z,25.20
2018-04-22T04:16:18.435Z,25.80
2018-04-22T04:19:11.866Z,25.80
2018-04-22T04:21:56.351Z,25.60
2018-04-22T04:24:41.019Z,25.70
2018-04-22T04:30:18.552Z,25.50
2018-04-22T04:32:44.753Z,25.50
2018-04-22T04:35:11.640Z,25.30
2018-04-22T04:37:37.698Z,25.40
2018-04-22T04:40:03.780Z,25.40
2018-04-22T04:42:29.878Z,25.40
2018-04-22T04:44:55.962Z,25.40
2018-04-22T04:47:22.051Z,25.40
2018-04-22T04:49:48.376Z,25.40
2018-04-22T04:52:14.450Z,25.40
2018-04-22T04:54:40.538Z,25.40
2018-04-22T04:57:06.615Z,25.10
2018-04-22T04:59:32.823Z,25.50
2018-04-22T05:01:59.668Z,25.60
2018-04-22T05:04:25.801Z,25.30
2018-04-22T05:06:51.888Z,25.60
2018-04-22T05:09:17.967Z,25.60
2018-04-22T05:11:44.818Z,25.60
2018-04-22T05:14:11.640Z,25.60
2018-04-22T05:16:37.736Z,25.60
2018-04-22T05:19:03.834Z,25.70
2018-04-22T05:21:31.053Z,25.80
2018-04-22T05:23:57.412Z,22.80
2018-04-22T05:26:23.781Z,25.80
2018-04-22T05:28:49.863Z,23.10
2018-04-22T05:31:15.976Z,26.00
2018-04-22T05:33:42.018Z,26.10
2018-04-22T05:36:08.221Z,26.10
2018-04-22T05:38:34.284Z,26.20
2018-04-22T05:41:00.617Z,26.20
2018-04-22T05:43:26.723Z,26.30
2018-04-22T05:45:53.374Z,26.40
2018-04-22T05:48:19.449Z,26.70
2018-04-22T05:50:45.539Z,26.40
2018-04-22T05:53:11.628Z,26.60
2018-04-22T05:55:37.713Z,26.50
2018-04-22T05:58:03.954Z,26.60
2018-04-22T06:00:30.063Z,24.40
2018-04-22T06:02:56.274Z,26.70
2018-04-22T06:05:22.847Z,26.70
2018-04-22T06:07:48.997Z,26.80
2018-04-22T06:10:15.082Z,27.00
2018-04-22T06:12:41.352Z,27.00
2018-04-22T06:15:07.539Z,27.30
2018-04-22T06:17:33.625Z,27.40
2018-04-22T06:19:59.779Z,27.50
2018-04-22T06:22:26.603Z,27.70
2018-04-22T06:24:52.792Z,27.70
2018-04-22T06:27:19.487Z,27.70
2018-04-22T06:29:45.599Z,27.70
2018-04-22T06:32:11.667Z,27.90
2018-04-22T06:34:37.780Z,27.90
2018-04-22T06:37:03.890Z,28.00
2018-04-22T06:39:29.974Z,28.10
2018-04-22T06:41:56.097Z,27.90
2018-04-22T06:44:22.221Z,25.10
2018-04-22T06:46:48.331Z,28.30
2018-04-22T06:49:15.204Z,28.30
2018-04-22T06:51:41.284Z,28.20
2018-04-22T06:54:07.431Z,28.20
2018-04-22T06:56:33.509Z,28.10
2018-04-22T06:58:59.622Z,28.40
2018-04-22T07:01:25.722Z,28.80
2018-04-22T07:03:51.839Z,28.70
2018-04-22T07:06:17.927Z,28.50
2018-04-22T07:08:44.118Z,28.80
2018-04-22T07:11:10.223Z,28.60
2018-04-22T07:13:36.339Z,28.80
2018-04-22T07:16:02.458Z,28.80
2018-04-22T07:18:28.852Z,26.20
2018-04-22T07:20:54.951Z,29.20
2018-04-22T07:23:21.380Z,29.20
2018-04-22T07:25:48.387Z,29.50
2018-04-22T07:28:14.512Z,29.50
2018-04-22T07:30:40.675Z,29.70
2018-04-22T07:33:06.777Z,29.50
2018-04-22T07:35:32.953Z,29.70
2018-04-22T07:37:59.791Z,30.50
2018-04-22T07:40:26.675Z,30.80
2018-04-22T07:42:52.883Z,30.80
2018-04-22T07:45:19.703Z,31.10
2018-04-22T07:47:45.876Z,31.10
2018-04-22T07:50:12.098Z,31.20
2018-04-22T07:52:38.266Z,31.30
2018-04-22T07:55:04.388Z,31.60
2018-04-22T07:57:30.503Z,31.80
2018-04-22T07:59:56.626Z,31.70
2018-04-22T08:02:37.906Z,32.00
2018-04-22T08:05:05.200Z,32.10
2018-04-22T08:07:31.303Z,32.10
2018-04-22T08:09:57.406Z,32.40
2018-04-22T08:12:23.538Z,32.60
2018-04-22T08:14:49.672Z,32.60
2018-04-22T08:17:16.424Z,33.20
2018-04-22T08:19:42.551Z,33.30
2018-04-22T08:22:08.788Z,33.90
2018-04-22T08:24:34.877Z,34.00
2018-04-22T08:27:00.975Z,34.10
2018-04-22T08:29:27.060Z,33.90
2018-04-22T08:31:53.888Z,34.20
2018-04-22T08:34:19.971Z,34.20
2018-04-22T08:36:46.097Z,34.80
2018-04-22T08:39:12.296Z,35.80
2018-04-22T08:41:38.388Z,35.80
2018-04-22T08:44:04.543Z,36.00
2018-04-22T08:46:31.394Z,37.00
2018-04-22T08:48:58.443Z,36.90
2018-04-22T08:51:25.187Z,37.50
2018-04-22T08:53:51.284Z,38.20
2018-04-22T08:56:18.159Z,39.00
2018-04-22T08:58:44.267Z,39.00
2018-04-22T09:01:11.147Z,39.20
2018-04-22T09:03:37.283Z,39.10
2018-04-22T09:06:03.382Z,39.20
2018-04-22T09:08:29.546Z,39.10
2018-04-22T09:10:55.977Z,39.70
2018-04-22T09:13:22.070Z,40.10
2018-04-22T09:15:48.262Z,40.50
2018-04-22T09:18:14.337Z,40.80
2018-04-22T09:20:40.434Z,40.40
2018-04-22T09:23:07.595Z,40.80
2018-04-22T09:25:33.661Z,40.70
2018-04-22T09:28:00.028Z,41.00
2018-04-22T09:30:26.118Z,40.70
2018-04-22T09:32:52.315Z,38.40
2018-04-22T09:35:18.427Z,37.40
2018-04-22T09:37:44.515Z,36.90
2018-04-22T09:40:10.602Z,36.40
2018-04-22T09:42:36.694Z,35.50
2018-04-22T09:45:03.536Z,33.30
2018-04-22T09:47:30.397Z,33.00
2018-04-22T09:49:56.500Z,30.70
2018-04-22T09:52:22.567Z,32.80
2018-04-22T09:54:49.648Z,32.60
2018-04-22T09:57:15.744Z,32.30
2018-04-22T09:59:41.850Z,31.70
2018-04-22T10:02:14.899Z,31.40
2018-04-22T10:04:44.196Z,31.40
2018-04-22T10:07:10.248Z,31.40
2018-04-22T10:09:36.559Z,31.10
2018-04-22T10:12:02.635Z,30.60
2018-04-22T10:14:29.499Z,31.10
2018-04-22T10:16:55.676Z,31.10
2018-04-22T10:19:21.795Z,32.20
2018-04-22T10:21:47.918Z,33.50
2018-04-22T10:24:14.015Z,33.80
2018-04-22T10:26:40.132Z,34.00
2018-04-22T10:29:06.319Z,33.90
2018-04-22T10:31:32.432Z,34.00
2018-04-22T10:33:58.507Z,34.60
2018-04-22T10:36:24.654Z,34.70
2018-04-22T10:38:50.762Z,35.30
2018-04-22T10:41:16.881Z,36.40
2018-04-22T10:43:42.947Z,37.60
2018-04-22T10:46:09.027Z,37.30
2018-04-22T10:48:35.901Z,37.00
2018-04-22T10:51:01.993Z,37.00
2018-04-22T10:53:28.152Z,37.20
2018-04-22T10:55:54.260Z,37.10
2018-04-22T10:58:20.347Z,37.00
2018-04-22T11:00:46.420Z,37.00
2018-04-22T11:03:13.235Z,35.90
2018-04-22T11:05:39.322Z,36.00
2018-04-22T11:08:05.492Z,36.50
2018-04-22T11:10:31.556Z,36.50
2018-04-22T11:12:57.660Z,37.80
2018-04-22T11:15:23.839Z,39.10
2018-04-22T11:17:50.671Z,39.60
2018-04-22T11:20:16.797Z,39.60
2018-04-22T11:22:42.867Z,40.60
2018-04-22T11:25:09.165Z,41.50
2018-04-22T11:27:35.315Z,41.80
2018-04-22T11:30:01.512Z,42.50
2018-04-22T11:32:27.582Z,43.00
2018-04-22T11:34:53.657Z,41.50
2018-04-22T11:37:19.875Z,40.00
2018-04-22T11:39:46.028Z,40.90
2018-04-22T11:42:12.158Z,41.00
2018-04-22T11:44:38.274Z,41.70
2018-04-22T11:47:04.399Z,41.60
2018-04-22T11:49:30.482Z,41.20
2018-04-22T11:51:56.666Z,41.00
2018-04-22T11:54:22.808Z,40.80
2018-04-22T11:56:49.033Z,41.60
2018-04-22T11:59:15.186Z,42.10
2018-04-22T12:01:41.320Z,41.50
2018-04-22T12:04:07.414Z,41.20
2018-04-22T12:06:34.262Z,39.60
2018-04-22T12:09:00.581Z,39.30
2018-04-22T12:11:27.431Z,38.70
2018-04-22T12:13:53.727Z,38.70
2018-04-22T12:16:19.820Z,38.60
2018-04-22T12:18:45.967Z,37.80
2018-04-22T12:21:12.767Z,37.40
2018-04-22T12:23:39.779Z,36.10
2018-04-22T12:26:05.902Z,36.00
2018-04-22T12:28:31.974Z,36.20
2018-04-22T12:30:58.045Z,35.50
2018-04-22T12:33:24.260Z,34.50
2018-04-22T12:35:50.422Z,34.30
2018-04-22T12:38:16.502Z,34.30
2018-04-22T12:40:42.615Z,34.00
2018-04-22T12:43:08.830Z,34.10
2018-04-22T12:45:34.911Z,33.60
2018-04-22T12:48:00.970Z,33.20
2018-04-22T12:50:27.054Z,32.70
2018-04-22T12:52:53.132Z,32.70
2018-04-22T12:55:19.210Z,32.60
2018-04-22T12:57:45.347Z,32.40
2018-04-22T13:00:11.410Z,32.40
2018-04-22T13:02:37.494Z,32.60
2018-04-22T13:05:03.598Z,33.00
2018-04-22T13:07:29.706Z,33.10
2018-04-22T13:09:55.795Z,33.20
2018-04-22T13:12:21.888Z,33.50
2018-04-22T13:15:49.505Z,33.60
2018-04-22T13:18:15.676Z,33.20
2018-04-22T13:20:41.861Z,33.00
2018-04-22T13:23:08.013Z,33.20
2018-04-22T13:25:34.205Z,33.20
2018-04-22T13:28:00.378Z,33.10
2018-04-22T13:30:26.530Z,33.10
2018-04-22T13:32:52.770Z,33.00
2018-04-22T13:35:18.967Z,32.60
2018-04-22T13:37:45.132Z,32.70
2018-04-22T13:40:12.032Z,33.20
2018-04-22T13:42:38.218Z,33.20
2018-04-22T13:45:04.363Z,33.30
2018-04-22T13:47:30.522Z,33.30
2018-04-22T13:49:56.744Z,33.30
2018-04-22T13:52:22.891Z,33.20
2018-04-22T13:54:49.056Z,32.90
2018-04-22T13:57:15.217Z,33.30
2018-04-22T13:59:41.437Z,33.60
2018-04-22T14:02:07.620Z,33.80
2018-04-22T14:04:33.782Z,33.40
2018-04-22T14:06:59.913Z,33.90
2018-04-22T14:09:26.129Z,34.30
2018-04-22T14:11:52.324Z,34.70
2018-04-22T14:14:18.529Z,34.00
2018-04-22T14:16:44.681Z,33.80
2018-04-22T14:19:10.859Z,34.10
2018-04-22T14:21:37.042Z,34.50
2018-04-22T14:24:03.943Z,34.30
2018-04-22T14:26:30.178Z,34.20
2018-04-22T14:28:56.418Z,33.90
2018-04-22T14:31:23.321Z,34.00
2018-04-22T14:33:49.587Z,33.50
2018-04-22T14:36:15.780Z,33.00
2018-04-22T14:38:42.141Z,32.60
2018-04-22T14:41:08.369Z,32.00
2018-04-22T14:43:36.074Z,31.50
2018-04-22T14:46:12.757Z,31.00
2018-04-22T14:48:59.870Z,30.60
2018-04-22T14:51:27.297Z,30.20
2018-04-22T14:53:53.547Z,30.20
2018-04-22T14:56:20.811Z,30.20
2018-04-22T14:58:46.999Z,30.50
2018-04-22T15:01:13.229Z,30.50
2018-04-22T15:03:39.554Z,30.60
2018-04-22T15:06:05.900Z,30.40
2018-04-22T15:08:32.137Z,30.80
2018-04-22T15:10:58.351Z,29.00
2018-04-22T15:13:25.249Z,31.60
2018-04-22T15:15:51.425Z,31.60
2018-04-22T15:18:17.622Z,31.80
2018-04-22T15:20:43.721Z,32.00
2018-04-22T15:23:09.884Z,32.20
2018-04-22T15:25:36.166Z,32.10
2018-04-22T15:28:03.078Z,32.70
2018-04-22T15:30:29.240Z,32.70
2018-04-22T15:32:55.389Z,32.90
2018-04-22T15:35:22.287Z,33.00
2018-04-22T15:37:48.490Z,32.90
2018-04-22T15:40:14.686Z,32.80
2018-04-22T15:42:40.917Z,32.90
2018-04-22T15:45:07.062Z,32.60
2018-04-22T15:47:33.218Z,32.40
2018-04-22T15:49:59.389Z,32.60
2018-04-22T15:52:26.048Z,31.10
2018-04-22T15:54:52.329Z,29.70
2018-04-22T15:57:18.526Z,25.10
2018-04-22T15:59:44.804Z,24.90
2018-04-22T16:02:10.995Z,24.60
2018-04-22T16:04:37.271Z,25.20
2018-04-22T16:07:03.511Z,26.10
2018-04-22T16:09:29.671Z,24.00
2018-04-22T16:11:55.858Z,26.30
2018-04-22T16:14:22.074Z,26.00
2018-04-22T16:16:48.322Z,25.70
2018-04-22T16:19:15.824Z,26.00
2018-04-22T16:21:41.997Z,26.00
2018-04-22T16:24:08.188Z,22.70
2018-04-22T16:26:34.435Z,25.60
2018-04-22T16:29:01.391Z,25.30
2018-04-22T16:31:27.599Z,24.60
2018-04-22T16:33:53.807Z,25.50
2018-04-22T16:36:19.963Z,25.20
2018-04-22T16:38:46.128Z,25.70
2018-04-22T16:41:12.422Z,25.90
2018-04-22T16:43:39.193Z,25.80
2018-04-22T16:46:05.404Z,26.10
2018-04-22T16:48:31.616Z,26.20
2018-04-22T16:50:58.507Z,26.30
2018-04-22T16:53:24.684Z,26.30
2018-04-22T16:55:51.114Z,25.80
2018-04-22T16:58:17.308Z,26.50
2018-04-22T17:00:43.508Z,26.30
2018-04-22T17:03:09.792Z,22.70
2018-04-22T17:05:39.303Z,26.60
2018-04-22T17:08:05.512Z,26.70
2018-04-22T17:10:31.741Z,26.90
2018-04-22T17:12:58.013Z,26.60
2018-04-22T17:15:24.212Z,26.60
2018-04-22T17:17:52.201Z,26.60
2018-04-22T17:20:18.497Z,26.60
2018-04-22T17:22:44.735Z,26.70
2018-04-22T17:25:10.947Z,26.50
2018-04-22T17:27:37.179Z,26.70
2018-04-22T17:30:03.899Z,26.40
2018-04-22T17:32:30.164Z,26.40
2018-04-22T17:34:57.122Z,26.30
2018-04-22T17:37:24.087Z,26.30
2018-04-22T17:39:51.038Z,26.30
2018-04-22T17:42:17.207Z,27.40
2018-04-22T17:44:43.408Z,26.30
2018-04-22T17:47:10.192Z,26.30
2018-04-22T17:49:36.482Z,26.20
2018-04-22T17:52:02.687Z,26.30
2018-04-22T17:54:28.976Z,26.40
2018-04-22T17:56:56.152Z,26.40
2018-04-22T17:59:22.457Z,26.40
2018-04-22T18:01:48.737Z,26.40
2018-04-22T18:04:15.654Z,26.40
2018-04-22T18:06:41.844Z,26.40
2018-04-22T18:09:08.197Z,26.30
2018-04-22T18:11:34.461Z,23.70
2018-04-22T18:14:00.664Z,25.70
2018-04-22T18:16:27.592Z,26.20
2018-04-22T18:18:53.792Z,26.20
2018-04-22T18:21:20.731Z,26.10
2018-04-22T18:23:47.124Z,25.90
2018-04-22T18:26:14.113Z,26.10
2018-04-22T18:28:40.339Z,26.10
2018-04-22T18:31:06.523Z,26.20
2018-04-22T18:33:32.758Z,26.00
2018-04-22T18:35:58.994Z,26.10
2018-04-22T18:38:25.307Z,26.30
2018-04-22T18:40:53.569Z,26.20
2018-04-22T18:43:19.789Z,26.20
2018-04-22T18:45:46.817Z,26.30
2018-04-22T18:48:13.073Z,26.40
2018-04-22T18:50:39.262Z,26.20
2018-04-22T18:53:06.205Z,26.40
2018-04-22T18:55:32.442Z,26.70
2018-04-22T18:57:58.654Z,26.50
2018-04-22T19:00:24.956Z,26.10
2018-04-22T19:02:51.215Z,23.10
2018-04-22T19:05:17.458Z,26.10
2018-04-22T19:07:43.617Z,26.30
2018-04-22T19:10:09.859Z,26.20
2018-04-22T19:12:36.176Z,26.00
2018-04-22T19:15:02.368Z,25.60
2018-04-22T19:17:29.296Z,25.60
2018-04-22T19:19:55.513Z,25.70
2018-04-22T19:22:22.662Z,25.70
2018-04-22T19:24:48.993Z,25.50
2018-04-22T19:27:15.315Z,22.40
2018-04-22T19:29:41.531Z,25.50
2018-04-22T19:32:07.739Z,23.00
2018-04-22T19:34:34.801Z,25.90
2018-04-22T19:37:01.091Z,25.80
2018-04-22T19:39:27.364Z,25.80
2018-04-22T19:41:53.550Z,25.40
2018-04-22T19:44:20.963Z,25.50
2018-04-22T19:46:47.153Z,24.50
2018-04-22T19:49:13.403Z,25.50
2018-04-22T19:51:39.620Z,25.60
2018-04-22T19:54:06.784Z,25.30
2018-04-22T19:56:33.028Z,25.30
2018-04-22T19:58:59.208Z,22.30
2018-04-22T20:01:25.442Z,25.20
2018-04-22T20:03:52.525Z,25.20
2018-04-22T20:06:18.718Z,22.40
2018-04-22T20:08:45.671Z,25.50
2018-04-22T20:11:11.927Z,25.50
2018-04-22T20:13:38.130Z,22.70
2018-04-22T20:16:04.331Z,25.40
2018-04-22T20:18:30.492Z,25.50
2018-04-22T20:20:57.265Z,25.20
2018-04-22T20:23:23.513Z,25.20
2018-04-22T20:25:49.756Z,25.30
2018-04-22T20:28:15.955Z,25.40
2018-04-22T20:30:42.180Z,25.40
2018-04-22T20:33:09.090Z,25.30
2018-04-22T20:35:35.302Z,25.30
2018-04-22T20:38:01.543Z,25.10
2018-04-22T20:40:28.710Z,25.40
2018-04-22T20:42:54.954Z,23.70
2018-04-22T20:45:21.165Z,25.20
2018-04-22T20:47:47.376Z,25.20
2018-04-22T20:50:13.564Z,25.20
2018-04-22T20:52:39.790Z,25.20
2018-04-22T20:55:07.930Z,25.10
2018-04-22T20:57:34.169Z,25.10
2018-04-22T21:00:00.403Z,25.00
2018-04-22T21:02:26.798Z,24.80
2018-04-22T21:04:53.932Z,24.80
2018-04-22T21:07:20.211Z,24.00
2018-04-22T21:09:46.475Z,21.20
2018-04-22T21:12:13.512Z,24.90
2018-04-22T21:14:39.687Z,24.90
2018-04-22T21:17:07.193Z,24.80
2018-04-22T21:19:33.379Z,24.90
2018-04-22T21:21:59.569Z,24.50
2018-04-22T21:24:25.795Z,24.80
2018-04-22T21:26:52.024Z,24.70
2018-04-22T21:29:18.311Z,24.70
2018-04-22T21:31:44.555Z,24.80
2018-04-22T21:34:10.810Z,24.90
2018-04-22T21:36:37.016Z,24.80
2018-04-22T21:39:05.376Z,24.40
2018-04-22T21:41:31.636Z,24.30
2018-04-22T21:43:57.842Z,24.50
2018-04-22T21:46:24.099Z,24.50
2018-04-22T21:48:50.360Z,24.00
2018-04-22T21:51:21.220Z,24.00
2018-04-22T21:53:47.419Z,24.00
2018-04-22T21:56:13.689Z,23.60
2018-04-22T21:58:40.716Z,23.70
2018-04-22T22:01:06.933Z,23.70
2018-04-22T22:03:34.356Z,23.70
2018-04-22T22:06:00.553Z,23.60
2018-04-22T22:08:26.764Z,23.60
2018-04-22T22:10:52.990Z,23.30
2018-04-22T22:13:19.208Z,19.60
2018-04-22T22:15:47.103Z,23.20
2018-04-22T22:18:13.256Z,23.10
2018-04-22T22:20:39.464Z,20.10
2018-04-22T22:23:05.694Z,23.00
2018-04-22T22:25:31.916Z,23.00
2018-04-22T22:27:59.249Z,23.10
2018-04-22T22:30:25.491Z,23.20
2018-04-22T22:32:51.715Z,23.30
2018-04-22T22:35:17.923Z,23.30
2018-04-22T22:37:44.908Z,23.70
2018-04-22T22:40:11.104Z,23.70
2018-04-22T22:42:37.271Z,23.30
2018-04-22T22:45:04.233Z,23.50
2018-04-22T22:47:30.405Z,23.30
2018-04-22T22:49:56.649Z,23.70
2018-04-22T22:52:23.039Z,22.30
2018-04-22T22:54:49.260Z,23.80
2018-04-22T22:57:15.482Z,23.70
2018-04-22T22:59:45.796Z,24.90
2018-04-22T23:02:12.034Z,24.00
2018-04-22T23:04:39.016Z,24.20
2018-04-22T23:07:05.286Z,23.50
2018-04-22T23:09:31.520Z,23.40
2018-04-22T23:11:58.802Z,20.70
2018-04-22T23:14:25.020Z,22.50
2018-04-22T23:16:51.215Z,21.70
2018-04-22T23:19:17.442Z,21.60
2018-04-22T23:21:43.634Z,22.30
2018-04-22T23:24:11.234Z,21.70
2018-04-22T23:26:38.200Z,21.30
2018-04-22T23:29:04.388Z,21.20
2018-04-22T23:31:30.573Z,21.00
2018-04-22T23:33:56.821Z,20.70
2018-04-22T23:36:24.074Z,21.00
2018-04-22T23:38:50.291Z,21.00
2018-04-22T23:41:16.500Z,21.20
2018-04-22T23:43:42.744Z,21.10
2018-04-22T23:46:08.973Z,17.70
2018-04-22T23:48:36.197Z,21.40
2018-04-22T23:51:02.390Z,21.30
2018-04-22T23:53:28.708Z,20.50
2018-04-22T23:55:54.943Z,22.20
2018-04-22T23:58:21.151Z,20.40
